sensor_id;sensor_type;location;lat;lon;timestamp;temperature;humidity
17954;DHT22;9102;53.548;9.926;2023-08-17T00:00:32;18.10;99.90
17954;DHT22;9102;53.548;9.926;2023-08-17T00:02:59;18.10;99.90
17954;DHT22;9102;53.548;9.926;2023-08-17T00:05:26;18.10;99.90
17954;DHT22;9102;53.548;9.926;2023-08-17T00:07:53;18.10;99.90
17954;DHT22;9102;53.548;9.926;2023-08-17T00:10:20;18.00;99.90
17954;DHT22;9102;53.548;9.926;2023-08-17T00:12:48;18.00;99.90
17954;DHT22;9102;53.548;9.926;2023-08-17T00:15:15;18.00;99.90
17954;DHT22;9102;53.548;9.926;2023-08-17T00:17:42;18.00;99.90
17954;DHT22;9102;53.548;9.926;2023-08-17T00:20:09;18.00;99.90
17954;DHT22;9102;53.548;9.926;2023-08-17T00:22:36;18.00;99.90
17954;DHT22;9102;53.548;9.926;2023-08-17T00:25:03;18.00;99.90
17954;DHT22;9102;53.548;9.926;2023-08-17T00:27:31;18.00;99.90
17954;DHT22;9102;53.548;9.926;2023-08-17T00:30:00;17.90;99.90
17954;DHT22;9102;53.548;9.926;2023-08-17T00:32:27;18.00;99.90
17954;DHT22;9102;53.548;9.926;2023-08-17T00:34:53;18.00;99.90
17954;DHT22;9102;53.548;9.926;2023-08-17T00:37:21;18.00;99.90
17954;DHT22;9102;53.548;9.926;2023-08-17T00:39:47;18.00;99.90
17954;DHT22;9102;53.548;9.926;2023-08-17T00:42:14;17.90;99.90
17954;DHT22;9102;53.548;9.926;2023-08-17T00:48:05;17.90;99.90
17954;DHT22;9102;53.548;9.926;2023-08-17T00:50:34;17.80;99.90
17954;DHT22;9102;53.548;9.926;2023-08-17T00:53:01;17.80;99.90
17954;DHT22;9102;53.548;9.926;2023-08-17T00:55:28;17.80;99.90
17954;DHT22;9102;53.548;9.926;2023-08-17T00:57:56;17.80;99.90
17954;DHT22;9102;53.548;9.926;2023-08-17T01:00:24;17.80;99.90
17954;DHT22;9102;53.548;9.926;2023-08-17T01:02:53;17.70;99.90
17954;DHT22;9102;53.548;9.926;2023-08-17T01:08:43;17.80;99.90
17954;DHT22;9102;53.548;9.926;2023-08-17T01:11:17;17.80;99.90
17954;DHT22;9102;53.548;9.926;2023-08-17T01:13:51;17.80;99.90
17954;DHT22;9102;53.548;9.926;2023-08-17T01:16:24;17.70;99.90
17954;DHT22;9102;53.548;9.926;2023-08-17T01:18:51;17.70;99.90
17954;DHT22;9102;53.548;9.926;2023-08-17T01:21:21;17.70;99.90
17954;DHT22;9102;53.548;9.926;2023-08-17T01:23:50;17.70;99.90
17954;DHT22;9102;53.548;9.926;2023-08-17T01:26:17;17.70;99.90
17954;DHT22;9102;53.548;9.926;2023-08-17T01:28:46;17.60;99.90
17954;DHT22;9102;53.548;9.926;2023-08-17T01:31:21;17.60;99.90
17954;DHT22;9102;53.548;9.926;2023-08-17T01:33:54;17.60;99.90
17954;DHT22;9102;53.548;9.926;2023-08-17T01:36:25;17.60;99.90
17954;DHT22;9102;53.548;9.926;2023-08-17T01:38:56;17.60;99.90
17954;DHT22;9102;53.548;9.926;2023-08-17T01:41:24;17.60;99.90
17954;DHT22;9102;53.548;9.926;2023-08-17T01:43:53;17.60;99.90
17954;DHT22;9102;53.548;9.926;2023-08-17T01:46:21;17.60;99.90
17954;DHT22;9102;53.548;9.926;2023-08-17T01:48:47;17.70;99.90
17954;DHT22;9102;53.548;9.926;2023-08-17T01:51:17;17.70;99.90
17954;DHT22;9102;53.548;9.926;2023-08-17T01:53:45;17.50;99.90
17954;DHT22;9102;53.548;9.926;2023-08-17T01:56:13;17.60;99.90
17954;DHT22;9102;53.548;9.926;2023-08-17T01:58:40;17.60;99.90
17954;DHT22;9102;53.548;9.926;2023-08-17T02:01:07;17.60;99.90
17954;DHT22;9102;53.548;9.926;2023-08-17T02:03:34;17.50;99.90
17954;DHT22;9102;53.548;9.926;2023-08-17T02:06:01;17.50;99.90
17954;DHT22;9102;53.548;9.926;2023-08-17T02:08:29;17.50;99.90
17954;DHT22;9102;53.548;9.926;2023-08-17T02:10:56;17.50;99.90
17954;DHT22;9102;53.548;9.926;2023-08-17T02:13:24;17.50;99.90
17954;DHT22;9102;53.548;9.926;2023-08-17T02:15:53;17.40;99.90
17954;DHT22;9102;53.548;9.926;2023-08-17T02:18:19;17.40;99.90
17954;DHT22;9102;53.548;9.926;2023-08-17T02:20:46;17.30;99.90
17954;DHT22;9102;53.548;9.926;2023-08-17T02:23:13;17.40;99.90
17954;DHT22;9102;53.548;9.926;2023-08-17T02:25:40;17.30;99.90
17954;DHT22;9102;53.548;9.926;2023-08-17T02:28:07;17.30;99.90
17954;DHT22;9102;53.548;9.926;2023-08-17T02:30:35;17.20;99.90
17954;DHT22;9102;53.548;9.926;2023-08-17T02:33:03;17.30;99.90
17954;DHT22;9102;53.548;9.926;2023-08-17T02:35:30;17.20;99.90
17954;DHT22;9102;53.548;9.926;2023-08-17T02:37:57;17.20;99.90
17954;DHT22;9102;53.548;9.926;2023-08-17T02:40:24;17.10;99.90
17954;DHT22;9102;53.548;9.926;2023-08-17T02:42:50;17.10;99.90
17954;DHT22;9102;53.548;9.926;2023-08-17T02:45:17;17.20;99.90
17954;DHT22;9102;53.548;9.926;2023-08-17T02:47:46;17.20;99.90
17954;DHT22;9102;53.548;9.926;2023-08-17T02:50:12;17.20;99.90
17954;DHT22;9102;53.548;9.926;2023-08-17T02:52:40;17.20;99.90
17954;DHT22;9102;53.548;9.926;2023-08-17T02:55:07;17.20;99.90
17954;DHT22;9102;53.548;9.926;2023-08-17T02:57:34;17.20;99.90
17954;DHT22;9102;53.548;9.926;2023-08-17T03:00:00;17.20;99.90
17954;DHT22;9102;53.548;9.926;2023-08-17T03:02:27;17.10;99.90
17954;DHT22;9102;53.548;9.926;2023-08-17T03:04:55;17.10;99.90
17954;DHT22;9102;53.548;9.926;2023-08-17T03:07:22;17.10;99.90
17954;DHT22;9102;53.548;9.926;2023-08-17T03:09:49;17.10;99.90
17954;DHT22;9102;53.548;9.926;2023-08-17T03:12:16;17.10;99.90
17954;DHT22;9102;53.548;9.926;2023-08-17T03:14:42;17.10;99.90
17954;DHT22;9102;53.548;9.926;2023-08-17T03:17:09;17.10;99.90
17954;DHT22;9102;53.548;9.926;2023-08-17T03:19:36;17.10;99.90
17954;DHT22;9102;53.548;9.926;2023-08-17T03:22:04;17.00;99.90
17954;DHT22;9102;53.548;9.926;2023-08-17T03:24:31;17.10;99.90
17954;DHT22;9102;53.548;9.926;2023-08-17T03:26:58;17.10;99.90
17954;DHT22;9102;53.548;9.926;2023-08-17T03:29:25;17.00;99.90
17954;DHT22;9102;53.548;9.926;2023-08-17T03:31:52;17.10;99.90
17954;DHT22;9102;53.548;9.926;2023-08-17T03:34:19;17.10;99.90
17954;DHT22;9102;53.548;9.926;2023-08-17T03:36:46;17.10;99.90
17954;DHT22;9102;53.548;9.926;2023-08-17T03:39:14;17.10;99.90
17954;DHT22;9102;53.548;9.926;2023-08-17T03:41:41;17.10;99.90
17954;DHT22;9102;53.548;9.926;2023-08-17T03:44:08;17.10;99.90
17954;DHT22;9102;53.548;9.926;2023-08-17T03:46:35;17.00;99.90
17954;DHT22;9102;53.548;9.926;2023-08-17T03:49:02;17.10;99.90
17954;DHT22;9102;53.548;9.926;2023-08-17T03:51:28;17.10;99.90
17954;DHT22;9102;53.548;9.926;2023-08-17T03:53:55;17.10;99.90
17954;DHT22;9102;53.548;9.926;2023-08-17T03:56:23;17.00;99.90
17954;DHT22;9102;53.548;9.926;2023-08-17T03:58:52;17.10;99.90
17954;DHT22;9102;53.548;9.926;2023-08-17T04:01:19;17.10;99.90
17954;DHT22;9102;53.548;9.926;2023-08-17T04:03:46;17.10;99.90
17954;DHT22;9102;53.548;9.926;2023-08-17T04:06:13;17.10;99.90
17954;DHT22;9102;53.548;9.926;2023-08-17T04:08:39;17.10;99.90
17954;DHT22;9102;53.548;9.926;2023-08-17T04:11:06;17.10;99.90
17954;DHT22;9102;53.548;9.926;2023-08-17T04:13:34;17.10;99.90
17954;DHT22;9102;53.548;9.926;2023-08-17T04:16:01;17.10;99.90
17954;DHT22;9102;53.548;9.926;2023-08-17T04:18:28;17.20;99.90
17954;DHT22;9102;53.548;9.926;2023-08-17T04:20:55;17.10;99.90
17954;DHT22;9102;53.548;9.926;2023-08-17T04:23:22;17.10;99.90
17954;DHT22;9102;53.548;9.926;2023-08-17T04:25:48;17.10;99.90
17954;DHT22;9102;53.548;9.926;2023-08-17T04:28:15;17.20;99.90
17954;DHT22;9102;53.548;9.926;2023-08-17T04:30:44;17.10;99.90
17954;DHT22;9102;53.548;9.926;2023-08-17T04:33:10;17.20;99.90
17954;DHT22;9102;53.548;9.926;2023-08-17T04:35:38;17.20;99.90
17954;DHT22;9102;53.548;9.926;2023-08-17T04:38:05;17.30;99.90
17954;DHT22;9102;53.548;9.926;2023-08-17T04:40:32;17.30;99.90
17954;DHT22;9102;53.548;9.926;2023-08-17T04:42:58;17.30;99.90
17954;DHT22;9102;53.548;9.926;2023-08-17T04:45:25;17.40;99.90
17954;DHT22;9102;53.548;9.926;2023-08-17T04:47:53;17.40;99.90
17954;DHT22;9102;53.548;9.926;2023-08-17T04:50:20;17.30;99.90
17954;DHT22;9102;53.548;9.926;2023-08-17T04:52:47;17.30;99.90
17954;DHT22;9102;53.548;9.926;2023-08-17T04:55:14;17.30;99.90
17954;DHT22;9102;53.548;9.926;2023-08-17T04:57:41;17.30;99.90
17954;DHT22;9102;53.548;9.926;2023-08-17T05:00:08;17.30;99.90
17954;DHT22;9102;53.548;9.926;2023-08-17T05:02:35;17.30;99.90
17954;DHT22;9102;53.548;9.926;2023-08-17T05:08:25;17.30;99.90
17954;DHT22;9102;53.548;9.926;2023-08-17T05:10:52;17.30;99.90
17954;DHT22;9102;53.548;9.926;2023-08-17T05:13:19;17.20;99.90
17954;DHT22;9102;53.548;9.926;2023-08-17T05:15:46;17.10;99.90
17954;DHT22;9102;53.548;9.926;2023-08-17T05:18:12;17.10;99.90
17954;DHT22;9102;53.548;9.926;2023-08-17T05:20:40;17.10;99.90
17954;DHT22;9102;53.548;9.926;2023-08-17T05:23:06;17.10;99.90
17954;DHT22;9102;53.548;9.926;2023-08-17T05:25:35;17.10;99.90
17954;DHT22;9102;53.548;9.926;2023-08-17T05:28:02;17.20;99.90
17954;DHT22;9102;53.548;9.926;2023-08-17T05:30:28;17.10;99.90
17954;DHT22;9102;53.548;9.926;2023-08-17T05:32:55;17.10;99.90
17954;DHT22;9102;53.548;9.926;2023-08-17T05:35:22;17.30;99.90
17954;DHT22;9102;53.548;9.926;2023-08-17T05:37:49;17.20;99.90
17954;DHT22;9102;53.548;9.926;2023-08-17T05:40:16;17.30;99.90
17954;DHT22;9102;53.548;9.926;2023-08-17T05:42:44;17.20;99.90
17954;DHT22;9102;53.548;9.926;2023-08-17T05:45:11;17.20;99.90
17954;DHT22;9102;53.548;9.926;2023-08-17T05:47:38;17.10;99.90
17954;DHT22;9102;53.548;9.926;2023-08-17T05:50:06;17.00;99.90
17954;DHT22;9102;53.548;9.926;2023-08-17T05:52:33;16.80;99.90
17954;DHT22;9102;53.548;9.926;2023-08-17T05:54:59;16.60;99.90
17954;DHT22;9102;53.548;9.926;2023-08-17T05:57:26;16.50;99.90
17954;DHT22;9102;53.548;9.926;2023-08-17T05:59:55;16.50;99.90
17954;DHT22;9102;53.548;9.926;2023-08-17T06:02:21;16.40;99.90
17954;DHT22;9102;53.548;9.926;2023-08-17T06:04:48;16.30;99.90
17954;DHT22;9102;53.548;9.926;2023-08-17T06:07:15;16.40;99.90
17954;DHT22;9102;53.548;9.926;2023-08-17T06:09:42;16.20;99.90
17954;DHT22;9102;53.548;9.926;2023-08-17T06:12:09;16.10;99.90
17954;DHT22;9102;53.548;9.926;2023-08-17T06:14:35;16.30;99.90
17954;DHT22;9102;53.548;9.926;2023-08-17T06:17:04;16.10;99.90
17954;DHT22;9102;53.548;9.926;2023-08-17T06:19:31;16.20;99.90
17954;DHT22;9102;53.548;9.926;2023-08-17T06:21:58;16.20;99.90
17954;DHT22;9102;53.548;9.926;2023-08-17T06:24:25;16.20;99.90
17954;DHT22;9102;53.548;9.926;2023-08-17T06:26:52;16.20;99.90
17954;DHT22;9102;53.548;9.926;2023-08-17T06:29:19;16.20;99.90
17954;DHT22;9102;53.548;9.926;2023-08-17T06:31:46;16.30;99.90
17954;DHT22;9102;53.548;9.926;2023-08-17T06:34:14;16.20;99.90
17954;DHT22;9102;53.548;9.926;2023-08-17T06:36:41;16.20;99.90
17954;DHT22;9102;53.548;9.926;2023-08-17T06:39:08;16.20;99.90
17954;DHT22;9102;53.548;9.926;2023-08-17T06:41:35;16.20;99.90
17954;DHT22;9102;53.548;9.926;2023-08-17T06:44:02;16.20;99.90
17954;DHT22;9102;53.548;9.926;2023-08-17T06:46:29;16.30;99.90
17954;DHT22;9102;53.548;9.926;2023-08-17T06:48:55;16.30;99.90
17954;DHT22;9102;53.548;9.926;2023-08-17T06:51:24;16.30;99.90
17954;DHT22;9102;53.548;9.926;2023-08-17T06:53:50;16.30;99.90
17954;DHT22;9102;53.548;9.926;2023-08-17T06:56:17;16.30;99.90
17954;DHT22;9102;53.548;9.926;2023-08-17T06:58:44;16.30;99.90
17954;DHT22;9102;53.548;9.926;2023-08-17T07:01:11;16.30;99.90
17954;DHT22;9102;53.548;9.926;2023-08-17T07:03:38;16.20;99.90
17954;DHT22;9102;53.548;9.926;2023-08-17T07:06:04;16.20;99.90
17954;DHT22;9102;53.548;9.926;2023-08-17T07:08:33;16.30;99.90
17954;DHT22;9102;53.548;9.926;2023-08-17T07:10:59;16.20;99.90
17954;DHT22;9102;53.548;9.926;2023-08-17T07:13:26;16.30;99.90
17954;DHT22;9102;53.548;9.926;2023-08-17T07:15:53;16.30;99.90
17954;DHT22;9102;53.548;9.926;2023-08-17T07:18:20;16.20;99.90
17954;DHT22;9102;53.548;9.926;2023-08-17T07:20:47;16.10;99.90
17954;DHT22;9102;53.548;9.926;2023-08-17T07:23:14;16.20;99.90
17954;DHT22;9102;53.548;9.926;2023-08-17T07:25:43;16.20;99.90
17954;DHT22;9102;53.548;9.926;2023-08-17T07:28:09;16.10;99.90
17954;DHT22;9102;53.548;9.926;2023-08-17T07:30:36;16.00;99.90
17954;DHT22;9102;53.548;9.926;2023-08-17T07:33:03;16.00;99.90
17954;DHT22;9102;53.548;9.926;2023-08-17T07:35:30;16.10;99.90
17954;DHT22;9102;53.548;9.926;2023-08-17T07:37:57;16.10;99.90
17954;DHT22;9102;53.548;9.926;2023-08-17T07:40:24;16.10;99.90
17954;DHT22;9102;53.548;9.926;2023-08-17T07:42:52;16.20;99.90
17954;DHT22;9102;53.548;9.926;2023-08-17T07:45:19;16.10;99.90
17954;DHT22;9102;53.548;9.926;2023-08-17T07:47:46;16.10;99.90
17954;DHT22;9102;53.548;9.926;2023-08-17T07:50:12;16.10;99.90
17954;DHT22;9102;53.548;9.926;2023-08-17T07:52:39;16.10;99.90
17954;DHT22;9102;53.548;9.926;2023-08-17T07:55:06;16.10;99.90
17954;DHT22;9102;53.548;9.926;2023-08-17T07:57:33;16.10;99.90
17954;DHT22;9102;53.548;9.926;2023-08-17T08:00:02;16.10;99.90
17954;DHT22;9102;53.548;9.926;2023-08-17T08:02:29;15.90;99.90
17954;DHT22;9102;53.548;9.926;2023-08-17T08:04:56;16.00;99.90
17954;DHT22;9102;53.548;9.926;2023-08-17T08:07:22;16.00;99.90
17954;DHT22;9102;53.548;9.926;2023-08-17T08:09:49;15.90;99.90
17954;DHT22;9102;53.548;9.926;2023-08-17T08:12:16;15.90;99.90
17954;DHT22;9102;53.548;9.926;2023-08-17T08:14:44;16.00;99.90
17954;DHT22;9102;53.548;9.926;2023-08-17T08:17:12;16.00;99.90
17954;DHT22;9102;53.548;9.926;2023-08-17T08:19:39;16.00;99.90
17954;DHT22;9102;53.548;9.926;2023-08-17T08:22:06;16.00;99.90
17954;DHT22;9102;53.548;9.926;2023-08-17T08:24:33;15.90;99.90
17954;DHT22;9102;53.548;9.926;2023-08-17T08:27:00;16.00;99.90
17954;DHT22;9102;53.548;9.926;2023-08-17T08:29:27;16.00;99.90
17954;DHT22;9102;53.548;9.926;2023-08-17T08:31:54;16.10;99.90
17954;DHT22;9102;53.548;9.926;2023-08-17T08:34:24;16.10;99.90
17954;DHT22;9102;53.548;9.926;2023-08-17T08:36:51;16.00;99.90
17954;DHT22;9102;53.548;9.926;2023-08-17T08:39:17;16.10;99.90
17954;DHT22;9102;53.548;9.926;2023-08-17T08:41:45;16.00;99.90
17954;DHT22;9102;53.548;9.926;2023-08-17T08:44:12;16.00;99.90
17954;DHT22;9102;53.548;9.926;2023-08-17T08:46:40;16.00;99.90
17954;DHT22;9102;53.548;9.926;2023-08-17T08:49:10;16.00;99.90
17954;DHT22;9102;53.548;9.926;2023-08-17T08:51:42;15.80;99.90
17954;DHT22;9102;53.548;9.926;2023-08-17T08:54:13;15.80;99.90
17954;DHT22;9102;53.548;9.926;2023-08-17T08:56:42;15.70;99.90
17954;DHT22;9102;53.548;9.926;2023-08-17T08:59:11;15.60;99.90
17954;DHT22;9102;53.548;9.926;2023-08-17T09:01:38;15.60;99.90
17954;DHT22;9102;53.548;9.926;2023-08-17T09:04:05;15.60;99.90
17954;DHT22;9102;53.548;9.926;2023-08-17T09:06:32;15.70;99.90
17954;DHT22;9102;53.548;9.926;2023-08-17T09:09:02;15.70;99.90
17954;DHT22;9102;53.548;9.926;2023-08-17T09:11:29;15.70;99.90
17954;DHT22;9102;53.548;9.926;2023-08-17T09:13:56;15.80;99.90
17954;DHT22;9102;53.548;9.926;2023-08-17T09:16:23;15.80;99.90
17954;DHT22;9102;53.548;9.926;2023-08-17T09:18:52;15.80;99.90
17954;DHT22;9102;53.548;9.926;2023-08-17T09:21:22;15.90;99.90
17954;DHT22;9102;53.548;9.926;2023-08-17T09:23:53;15.80;99.90
17954;DHT22;9102;53.548;9.926;2023-08-17T09:26:22;15.80;99.90
17954;DHT22;9102;53.548;9.926;2023-08-17T09:28:49;15.90;99.90
17954;DHT22;9102;53.548;9.926;2023-08-17T09:31:19;16.00;99.90
17954;DHT22;9102;53.548;9.926;2023-08-17T09:33:49;16.10;99.90
17954;DHT22;9102;53.548;9.926;2023-08-17T09:36:20;16.10;99.90
17954;DHT22;9102;53.548;9.926;2023-08-17T09:38:48;16.30;99.90
17954;DHT22;9102;53.548;9.926;2023-08-17T09:41:15;16.20;99.90
17954;DHT22;9102;53.548;9.926;2023-08-17T09:43:44;16.30;99.90
17954;DHT22;9102;53.548;9.926;2023-08-17T09:46:11;16.40;99.90
17954;DHT22;9102;53.548;9.926;2023-08-17T09:48:38;16.40;99.90
17954;DHT22;9102;53.548;9.926;2023-08-17T09:51:06;16.30;99.90
17954;DHT22;9102;53.548;9.926;2023-08-17T09:53:35;16.40;99.90
17954;DHT22;9102;53.548;9.926;2023-08-17T09:56:03;16.40;99.90
17954;DHT22;9102;53.548;9.926;2023-08-17T09:58:31;16.50;99.90
17954;DHT22;9102;53.548;9.926;2023-08-17T10:01:03;16.50;99.90
17954;DHT22;9102;53.548;9.926;2023-08-17T10:03:33;16.40;99.90
17954;DHT22;9102;53.548;9.926;2023-08-17T10:06:04;16.50;99.90
17954;DHT22;9102;53.548;9.926;2023-08-17T10:08:35;16.50;99.90
17954;DHT22;9102;53.548;9.926;2023-08-17T10:11:04;16.50;99.90
17954;DHT22;9102;53.548;9.926;2023-08-17T10:17:01;16.40;99.90
17954;DHT22;9102;53.548;9.926;2023-08-17T10:19:34;16.30;99.90
17954;DHT22;9102;53.548;9.926;2023-08-17T10:22:08;16.30;99.90
17954;DHT22;9102;53.548;9.926;2023-08-17T10:24:37;16.10;99.90
17954;DHT22;9102;53.548;9.926;2023-08-17T10:27:06;15.90;99.90
17954;DHT22;9102;53.548;9.926;2023-08-17T10:29:33;15.90;99.90
17954;DHT22;9102;53.548;9.926;2023-08-17T10:32:02;15.90;99.90
17954;DHT22;9102;53.548;9.926;2023-08-17T10:34:29;16.00;99.90
17954;DHT22;9102;53.548;9.926;2023-08-17T10:36:57;16.10;99.90
17954;DHT22;9102;53.548;9.926;2023-08-17T10:39:26;16.10;99.90
17954;DHT22;9102;53.548;9.926;2023-08-17T10:41:55;16.10;99.90
17954;DHT22;9102;53.548;9.926;2023-08-17T10:44:42;16.10;99.90
17954;DHT22;9102;53.548;9.926;2023-08-17T10:47:30;16.20;99.90
17954;DHT22;9102;53.548;9.926;2023-08-17T10:49:58;16.30;99.90
17954;DHT22;9102;53.548;9.926;2023-08-17T10:52:27;16.40;99.90
17954;DHT22;9102;53.548;9.926;2023-08-17T10:54:55;16.50;99.90
17954;DHT22;9102;53.548;9.926;2023-08-17T10:57:28;16.60;99.90
17954;DHT22;9102;53.548;9.926;2023-08-17T11:00:16;16.50;99.90
17954;DHT22;9102;53.548;9.926;2023-08-17T11:02:52;16.50;99.90
17954;DHT22;9102;53.548;9.926;2023-08-17T11:05:40;16.50;99.90
17954;DHT22;9102;53.548;9.926;2023-08-17T11:08:09;16.50;99.90
17954;DHT22;9102;53.548;9.926;2023-08-17T11:10:36;16.40;99.90
17954;DHT22;9102;53.548;9.926;2023-08-17T11:13:04;16.30;99.90
17954;DHT22;9102;53.548;9.926;2023-08-17T11:15:37;16.40;99.90
17954;DHT22;9102;53.548;9.926;2023-08-17T11:18:06;16.40;99.90
17954;DHT22;9102;53.548;9.926;2023-08-17T11:20:34;16.30;99.90
17954;DHT22;9102;53.548;9.926;2023-08-17T11:23:01;16.30;99.90
17954;DHT22;9102;53.548;9.926;2023-08-17T11:25:28;16.30;99.90
17954;DHT22;9102;53.548;9.926;2023-08-17T11:27:55;16.30;99.90
17954;DHT22;9102;53.548;9.926;2023-08-17T11:30:22;16.20;99.90
17954;DHT22;9102;53.548;9.926;2023-08-17T11:32:50;16.20;99.90
17954;DHT22;9102;53.548;9.926;2023-08-17T11:35:19;16.20;99.90
17954;DHT22;9102;53.548;9.926;2023-08-17T11:37:47;16.20;99.90
17954;DHT22;9102;53.548;9.926;2023-08-17T11:40:15;16.10;99.90
17954;DHT22;9102;53.548;9.926;2023-08-17T11:42:43;16.10;99.90
17954;DHT22;9102;53.548;9.926;2023-08-17T11:45:10;16.10;99.90
17954;DHT22;9102;53.548;9.926;2023-08-17T11:47:38;16.00;99.90
17954;DHT22;9102;53.548;9.926;2023-08-17T11:50:06;15.90;99.90
17954;DHT22;9102;53.548;9.926;2023-08-17T11:52:34;15.90;99.90
17954;DHT22;9102;53.548;9.926;2023-08-17T11:55:02;15.90;99.90
17954;DHT22;9102;53.548;9.926;2023-08-17T11:57:32;15.80;99.90
17954;DHT22;9102;53.548;9.926;2023-08-17T12:00:00;15.80;99.90
17954;DHT22;9102;53.548;9.926;2023-08-17T12:02:29;15.80;99.90
17954;DHT22;9102;53.548;9.926;2023-08-17T12:04:57;15.80;99.90
17954;DHT22;9102;53.548;9.926;2023-08-17T12:07:24;15.90;99.90
17954;DHT22;9102;53.548;9.926;2023-08-17T12:09:53;15.90;99.90
17954;DHT22;9102;53.548;9.926;2023-08-17T12:12:21;15.90;99.90
17954;DHT22;9102;53.548;9.926;2023-08-17T12:14:49;16.20;99.90
17954;DHT22;9102;53.548;9.926;2023-08-17T12:17:16;16.40;99.90
17954;DHT22;9102;53.548;9.926;2023-08-17T12:19:44;16.30;99.90
17954;DHT22;9102;53.548;9.926;2023-08-17T12:22:13;16.30;99.90
17954;DHT22;9102;53.548;9.926;2023-08-17T12:24:40;16.40;99.90
17954;DHT22;9102;53.548;9.926;2023-08-17T12:27:08;16.40;99.90
17954;DHT22;9102;53.548;9.926;2023-08-17T12:29:46;16.50;99.90
17954;DHT22;9102;53.548;9.926;2023-08-17T12:32:14;16.50;99.90
17954;DHT22;9102;53.548;9.926;2023-08-17T12:34:41;16.70;99.90
17954;DHT22;9102;53.548;9.926;2023-08-17T12:37:08;16.80;99.90
17954;DHT22;9102;53.548;9.926;2023-08-17T12:39:35;16.90;99.90
17954;DHT22;9102;53.548;9.926;2023-08-17T12:42:02;16.90;99.90
17954;DHT22;9102;53.548;9.926;2023-08-17T12:44:30;16.80;99.90
17954;DHT22;9102;53.548;9.926;2023-08-17T12:46:57;16.70;99.90
17954;DHT22;9102;53.548;9.926;2023-08-17T12:49:24;16.60;99.90
17954;DHT22;9102;53.548;9.926;2023-08-17T12:51:51;16.70;99.90
17954;DHT22;9102;53.548;9.926;2023-08-17T12:54:18;16.70;99.90
17954;DHT22;9102;53.548;9.926;2023-08-17T12:56:45;16.70;99.90
17954;DHT22;9102;53.548;9.926;2023-08-17T12:59:11;16.70;99.90
17954;DHT22;9102;53.548;9.926;2023-08-17T13:01:40;16.60;99.90
17954;DHT22;9102;53.548;9.926;2023-08-17T13:04:07;16.60;99.90
17954;DHT22;9102;53.548;9.926;2023-08-17T13:06:34;16.60;99.90
17954;DHT22;9102;53.548;9.926;2023-08-17T13:09:01;16.60;99.90
17954;DHT22;9102;53.548;9.926;2023-08-17T13:11:28;16.70;99.90
17954;DHT22;9102;53.548;9.926;2023-08-17T13:13:55;16.70;99.90
17954;DHT22;9102;53.548;9.926;2023-08-17T13:16:22;16.80;99.90
17954;DHT22;9102;53.548;9.926;2023-08-17T13:18:50;16.70;99.90
17954;DHT22;9102;53.548;9.926;2023-08-17T13:21:17;16.60;99.90
17954;DHT22;9102;53.548;9.926;2023-08-17T13:23:45;16.50;99.90
17954;DHT22;9102;53.548;9.926;2023-08-17T13:26:12;16.60;99.90
17954;DHT22;9102;53.548;9.926;2023-08-17T13:28:39;16.50;99.90
17954;DHT22;9102;53.548;9.926;2023-08-17T13:31:06;16.20;99.90
17954;DHT22;9102;53.548;9.926;2023-08-17T13:33:32;16.00;99.90
17954;DHT22;9102;53.548;9.926;2023-08-17T13:36:01;15.80;99.90
17954;DHT22;9102;53.548;9.926;2023-08-17T13:38:28;15.40;99.90
17954;DHT22;9102;53.548;9.926;2023-08-17T13:40:55;15.20;99.90
17954;DHT22;9102;53.548;9.926;2023-08-17T13:43:22;15.20;99.90
17954;DHT22;9102;53.548;9.926;2023-08-17T13:45:48;15.20;99.90
17954;DHT22;9102;53.548;9.926;2023-08-17T13:48:15;15.10;99.90
17954;DHT22;9102;53.548;9.926;2023-08-17T13:50:42;15.00;99.90
17954;DHT22;9102;53.548;9.926;2023-08-17T13:53:11;15.00;99.90
17954;DHT22;9102;53.548;9.926;2023-08-17T13:55:38;15.30;99.90
17954;DHT22;9102;53.548;9.926;2023-08-17T13:58:05;15.50;99.90
17954;DHT22;9102;53.548;9.926;2023-08-17T14:00:35;15.70;99.90
17954;DHT22;9102;53.548;9.926;2023-08-17T14:03:02;15.90;99.90
17954;DHT22;9102;53.548;9.926;2023-08-17T14:05:29;16.10;99.90
17954;DHT22;9102;53.548;9.926;2023-08-17T14:07:56;16.30;99.90
17954;DHT22;9102;53.548;9.926;2023-08-17T14:10:24;16.50;99.90
17954;DHT22;9102;53.548;9.926;2023-08-17T14:12:51;16.70;99.90
17954;DHT22;9102;53.548;9.926;2023-08-17T14:15:18;16.50;99.90
17954;DHT22;9102;53.548;9.926;2023-08-17T14:17:45;16.60;99.90
17954;DHT22;9102;53.548;9.926;2023-08-17T14:20:12;16.60;99.90
17954;DHT22;9102;53.548;9.926;2023-08-17T14:22:40;16.70;99.90
17954;DHT22;9102;53.548;9.926;2023-08-17T14:25:07;16.70;99.90
17954;DHT22;9102;53.548;9.926;2023-08-17T14:27:35;16.40;99.90
17954;DHT22;9102;53.548;9.926;2023-08-17T14:30:02;16.20;99.90
17954;DHT22;9102;53.548;9.926;2023-08-17T14:32:29;16.10;99.90
17954;DHT22;9102;53.548;9.926;2023-08-17T14:38:18;16.00;99.90
17954;DHT22;9102;53.548;9.926;2023-08-17T14:40:47;16.30;99.90
17954;DHT22;9102;53.548;9.926;2023-08-17T14:43:15;16.40;99.90
17954;DHT22;9102;53.548;9.926;2023-08-17T14:45:42;16.50;99.90
17954;DHT22;9102;53.548;9.926;2023-08-17T14:48:09;16.50;99.90
17954;DHT22;9102;53.548;9.926;2023-08-17T14:50:37;16.60;99.90
17954;DHT22;9102;53.548;9.926;2023-08-17T14:53:04;16.30;99.90
17954;DHT22;9102;53.548;9.926;2023-08-17T14:55:32;16.40;99.90
17954;DHT22;9102;53.548;9.926;2023-08-17T14:57:59;16.30;99.90
17954;DHT22;9102;53.548;9.926;2023-08-17T15:00:28;16.30;99.90
17954;DHT22;9102;53.548;9.926;2023-08-17T15:02:56;16.30;99.90
17954;DHT22;9102;53.548;9.926;2023-08-17T15:05:23;16.40;99.90
17954;DHT22;9102;53.548;9.926;2023-08-17T15:07:50;16.40;99.90
17954;DHT22;9102;53.548;9.926;2023-08-17T15:10:17;16.50;99.90
17954;DHT22;9102;53.548;9.926;2023-08-17T15:12:44;16.50;99.90
17954;DHT22;9102;53.548;9.926;2023-08-17T15:15:11;16.50;99.90
17954;DHT22;9102;53.548;9.926;2023-08-17T15:17:39;16.40;99.90
17954;DHT22;9102;53.548;9.926;2023-08-17T15:20:07;16.50;99.90
17954;DHT22;9102;53.548;9.926;2023-08-17T15:22:33;16.50;99.90
17954;DHT22;9102;53.548;9.926;2023-08-17T15:28:22;16.50;99.90
17954;DHT22;9102;53.548;9.926;2023-08-17T15:30:59;16.50;99.90
17954;DHT22;9102;53.548;9.926;2023-08-17T15:33:28;16.50;99.90
17954;DHT22;9102;53.548;9.926;2023-08-17T15:35:54;16.50;99.90
17954;DHT22;9102;53.548;9.926;2023-08-17T15:38:23;16.40;99.90
17954;DHT22;9102;53.548;9.926;2023-08-17T15:40:50;16.50;99.90
17954;DHT22;9102;53.548;9.926;2023-08-17T15:43:17;16.60;99.90
17954;DHT22;9102;53.548;9.926;2023-08-17T15:45:44;16.60;99.90
17954;DHT22;9102;53.548;9.926;2023-08-17T15:48:11;16.60;99.90
17954;DHT22;9102;53.548;9.926;2023-08-17T15:50:39;16.60;99.90
17954;DHT22;9102;53.548;9.926;2023-08-17T15:53:06;16.60;99.90
17954;DHT22;9102;53.548;9.926;2023-08-17T15:55:34;16.60;99.90
17954;DHT22;9102;53.548;9.926;2023-08-17T15:58:01;16.70;99.90
17954;DHT22;9102;53.548;9.926;2023-08-17T16:00:27;16.70;99.90
17954;DHT22;9102;53.548;9.926;2023-08-17T16:02:54;16.70;99.90
17954;DHT22;9102;53.548;9.926;2023-08-17T16:05:22;16.80;99.90
17954;DHT22;9102;53.548;9.926;2023-08-17T16:07:50;16.90;99.90